createdAt,value
2022-10-17T00:01:44.958Z,101670.75
2022-10-17T00:04:12.654Z,101649.13
2022-10-17T00:06:42.234Z,101665.63
2022-10-17T00:09:10.353Z,101734.44
2022-10-17T00:11:38.171Z,101807.03
2022-10-17T00:14:06.061Z,101851.59
2022-10-17T00:16:37.611Z,101862.88
2022-10-17T00:19:06.478Z,101882.16
2022-10-17T00:21:34.766Z,101891.56
2022-10-17T00:24:04.067Z,101904.72
2022-10-17T00:26:31.762Z,101913.88
2022-10-17T00:28:59.577Z,101825.22
2022-10-17T00:31:27.405Z,101727.63
2022-10-17T00:33:55.207Z,101701.81
2022-10-17T00:36:24.423Z,101752.00
2022-10-17T00:38:54.207Z,101771.50
2022-10-17T00:41:25.726Z,101763.72
2022-10-17T00:43:56.754Z,101743.81
2022-10-17T00:46:30.500Z,101710.38
2022-10-17T00:49:01.685Z,101715.41
2022-10-17T00:51:34.631Z,101677.47
2022-10-17T00:54:04.102Z,101680.88
2022-10-17T00:56:33.606Z,101716.81
2022-10-17T00:59:01.770Z,101725.53
2022-10-17T01:01:29.672Z,101711.06
2022-10-17T01:03:57.412Z,101668.72
2022-10-17T01:06:26.124Z,101659.41
2022-10-17T01:08:54.161Z,101637.88
2022-10-17T01:11:33.985Z,101624.88
2022-10-17T01:14:10.173Z,101598.44
2022-10-17T01:16:45.730Z,101605.81
2022-10-17T01:19:35.791Z,101609.59
2022-10-17T01:22:10.801Z,101597.00
2022-10-17T01:24:49.542Z,101601.19
2022-10-17T01:27:40.482Z,101644.47
2022-10-17T01:30:43.641Z,101663.84
2022-10-17T01:33:16.782Z,101650.19
2022-10-17T01:35:53.290Z,101624.47
2022-10-17T01:38:25.809Z,101627.50
2022-10-17T01:41:01.250Z,101637.59
2022-10-17T01:43:35.991Z,101633.25
2022-10-17T01:46:12.198Z,101632.38
2022-10-17T01:48:45.173Z,101627.78
2022-10-17T01:51:20.385Z,101632.16
2022-10-17T01:53:54.389Z,101635.50
2022-10-17T01:56:25.935Z,101631.34
2022-10-17T01:58:57.506Z,101619.13
2022-10-17T02:01:32.099Z,101639.28
2022-10-17T02:04:02.289Z,101665.16
2022-10-17T02:06:30.023Z,101662.38
2022-10-17T02:08:57.717Z,101670.22
2022-10-17T02:11:28.385Z,101675.09
2022-10-17T02:14:20.080Z,101673.78
2022-10-17T02:16:57.683Z,101657.03
2022-10-17T02:19:41.473Z,101697.66
2022-10-17T02:22:18.781Z,101708.81
2022-10-17T02:24:53.002Z,101697.69
2022-10-17T02:27:31.564Z,101699.06
2022-10-17T02:30:04.208Z,101704.19
2022-10-17T02:32:40.132Z,101697.78
2022-10-17T02:35:11.593Z,101687.28
2022-10-17T02:37:40.222Z,101686.59
2022-10-17T02:40:10.813Z,101707.31
2022-10-17T02:42:40.291Z,101725.78
2022-10-17T02:45:10.162Z,101742.41
2022-10-17T02:47:49.957Z,101752.66
2022-10-17T02:50:18.146Z,101738.13
2022-10-17T02:52:50.620Z,101705.16
2022-10-17T02:55:21.008Z,101683.59
2022-10-17T02:57:52.162Z,101670.44
2022-10-17T03:00:22.275Z,101688.63
2022-10-17T03:02:54.105Z,101653.84
2022-10-17T03:05:24.512Z,101688.16
2022-10-17T03:07:52.828Z,101699.41
2022-10-17T03:10:21.431Z,101711.31
2022-10-17T03:12:49.213Z,101728.63
2022-10-17T03:15:17.187Z,101745.97
2022-10-17T03:20:17.289Z,101763.47
2022-10-17T03:22:44.969Z,101790.13
2022-10-17T03:25:15.225Z,101808.22
2022-10-17T03:27:42.936Z,101831.44
2022-10-17T03:30:11.392Z,101867.56
2022-10-17T03:32:39.129Z,101879.69
2022-10-17T03:35:09.219Z,101838.28
2022-10-17T03:37:40.370Z,101804.50
2022-10-17T03:40:08.667Z,101796.38
2022-10-17T03:42:36.359Z,101775.47
2022-10-17T03:45:04.390Z,101762.88
2022-10-17T03:47:32.385Z,101756.44
2022-10-17T03:50:00.486Z,101752.06
2022-10-17T03:52:28.247Z,101767.06
2022-10-17T03:54:57.334Z,101819.69
2022-10-17T03:57:25.053Z,101895.41
2022-10-17T03:59:52.885Z,101941.69
2022-10-17T04:02:20.587Z,101966.47
2022-10-17T04:04:48.248Z,101980.94
2022-10-17T04:07:16.013Z,101955.78
2022-10-17T04:09:43.751Z,101973.44
2022-10-17T04:12:12.941Z,101994.97
2022-10-17T04:14:41.182Z,101975.94
2022-10-17T04:17:08.906Z,101974.13
2022-10-17T04:19:36.615Z,101961.72
2022-10-17T04:22:04.606Z,101888.22
2022-10-17T04:24:32.468Z,101846.78
2022-10-17T04:27:00.237Z,101815.75
2022-10-17T04:29:29.742Z,101802.09
2022-10-17T04:31:57.542Z,101831.44
2022-10-17T04:34:25.332Z,101879.50
2022-10-17T04:36:53.034Z,101931.97
2022-10-17T04:39:20.867Z,101976.63
2022-10-17T04:41:48.589Z,102003.59
2022-10-17T04:44:16.427Z,101982.28
2022-10-17T04:46:45.500Z,101947.69
2022-10-17T04:49:13.740Z,101913.06
2022-10-17T04:51:41.442Z,101861.03
2022-10-17T04:54:09.217Z,101845.44
2022-10-17T04:56:36.968Z,101845.28
2022-10-17T04:59:07.770Z,101847.94
2022-10-17T05:01:35.488Z,101845.31
2022-10-17T05:04:04.634Z,101831.31
2022-10-17T05:06:33.585Z,101833.13
2022-10-17T05:09:01.285Z,101798.44
2022-10-17T05:11:30.806Z,101806.06
2022-10-17T05:14:00.424Z,101813.63
2022-10-17T05:16:29.309Z,101817.84
2022-10-17T05:18:59.192Z,101831.59
2022-10-17T05:21:30.880Z,101828.75
2022-10-17T05:23:59.068Z,101822.59
2022-10-17T05:26:27.351Z,101826.81
2022-10-17T05:28:55.214Z,101814.59
2022-10-17T05:31:23.036Z,101814.16
2022-10-17T05:33:50.847Z,101811.94
2022-10-17T05:36:18.695Z,101815.31
2022-10-17T05:38:51.838Z,101812.50
2022-10-17T05:41:20.643Z,101798.63
2022-10-17T05:43:50.176Z,101783.72
2022-10-17T05:46:18.202Z,101755.16
2022-10-17T05:48:45.952Z,101764.69
2022-10-17T05:51:13.747Z,101735.72
2022-10-17T05:53:42.568Z,101729.66
2022-10-17T05:56:12.979Z,101751.66
2022-10-17T05:58:50.154Z,101741.09
2022-10-17T06:01:19.127Z,101713.13
2022-10-17T06:03:46.891Z,101717.03
2022-10-17T06:06:15.936Z,101708.66
2022-10-17T06:08:44.051Z,101701.78
2022-10-17T06:11:14.041Z,101689.91
2022-10-17T06:13:43.736Z,101676.22
2022-10-17T06:16:11.435Z,101682.31
2022-10-17T06:18:39.162Z,101686.94
2022-10-17T06:21:08.629Z,101667.47
2022-10-17T06:23:36.747Z,101659.63
2022-10-17T06:26:06.623Z,101642.88
2022-10-17T06:28:36.215Z,101639.38
2022-10-17T06:31:06.377Z,101625.84
2022-10-17T06:33:34.208Z,101608.94
2022-10-17T06:36:01.996Z,101594.63
2022-10-17T06:38:29.770Z,101584.47
2022-10-17T06:41:04.916Z,101590.25
2022-10-17T06:43:32.691Z,101579.50
2022-10-17T06:46:01.823Z,101512.44
2022-10-17T06:48:29.605Z,101508.66
2022-10-17T06:51:00.211Z,101475.38
2022-10-17T06:53:28.975Z,101468.13
2022-10-17T06:56:01.305Z,101485.28
2022-10-17T06:58:29.154Z,101504.34
2022-10-17T07:01:01.577Z,101507.66
2022-10-17T07:03:30.175Z,101480.41
2022-10-17T07:05:58.660Z,101491.81
2022-10-17T07:08:27.109Z,101505.72
2022-10-17T07:10:56.239Z,101502.16
2022-10-17T07:13:24.872Z,101496.50
2022-10-17T07:15:52.609Z,101494.75
2022-10-17T07:18:21.789Z,101487.66
2022-10-17T07:20:54.863Z,101477.53
2022-10-17T07:23:22.892Z,101477.75
2022-10-17T07:25:50.951Z,101487.50
2022-10-17T07:28:18.793Z,101450.00
2022-10-17T07:30:50.606Z,101439.63
2022-10-17T07:33:22.914Z,101417.75
2022-10-17T07:35:53.258Z,101395.03
2022-10-17T07:38:21.017Z,101383.34
2022-10-17T07:40:55.308Z,101373.16
2022-10-17T07:43:23.268Z,101358.66
2022-10-17T07:45:51.024Z,101363.78
2022-10-17T07:48:19.178Z,101369.06
2022-10-17T07:50:48.681Z,101379.72
2022-10-17T07:53:16.540Z,101411.97
2022-10-17T07:55:44.946Z,101436.91
2022-10-17T07:58:13.368Z,101440.25
2022-10-17T08:00:41.447Z,101464.09
2022-10-17T08:03:10.808Z,101463.81
2022-10-17T08:05:38.542Z,101513.56
2022-10-17T08:08:07.670Z,101482.16
2022-10-17T08:10:35.384Z,101480.94
2022-10-17T08:13:03.483Z,101485.97
2022-10-17T08:15:32.152Z,101500.03
2022-10-17T08:18:00.544Z,101513.41
2022-10-17T08:20:28.344Z,101565.81
2022-10-17T08:22:56.673Z,101546.41
2022-10-17T08:25:25.833Z,101589.94
2022-10-17T08:27:53.624Z,101621.81
2022-10-17T08:30:21.379Z,101628.59
2022-10-17T08:32:49.127Z,101634.06
2022-10-17T08:35:16.919Z,101650.59
2022-10-17T08:37:44.708Z,101659.59
2022-10-17T08:40:18.373Z,101662.41
2022-10-17T08:43:03.250Z,101637.50
2022-10-17T08:45:37.010Z,101660.78
2022-10-17T08:48:10.090Z,101707.06
2022-10-17T08:50:41.544Z,101725.50
2022-10-17T08:53:16.353Z,101666.19
2022-10-17T08:55:48.131Z,101630.97
2022-10-17T08:58:21.093Z,101572.25
2022-10-17T09:00:58.387Z,101531.09
2022-10-17T09:03:43.218Z,101626.63
2022-10-17T09:06:29.678Z,101642.31
2022-10-17T09:09:12.286Z,101580.63
2022-10-17T09:11:53.867Z,101640.72
2022-10-17T09:14:52.204Z,101641.56
2022-10-17T09:17:32.928Z,101738.63
2022-10-17T09:20:05.953Z,101722.44
2022-10-17T09:22:40.407Z,101690.69
2022-10-17T09:25:14.185Z,101674.47
2022-10-17T09:27:45.529Z,101647.41
2022-10-17T09:30:51.555Z,101592.16
2022-10-17T09:33:34.642Z,101540.88
2022-10-17T09:36:15.860Z,101532.91
2022-10-17T09:38:45.543Z,101499.84
2022-10-17T09:41:44.214Z,101516.91
2022-10-17T09:44:15.742Z,101492.63
2022-10-17T09:46:56.845Z,101470.13
2022-10-17T09:49:33.087Z,101514.34
2022-10-17T09:52:02.271Z,101511.00
2022-10-17T09:54:40.787Z,101543.69
2022-10-17T09:57:10.303Z,101625.72
2022-10-17T09:59:40.216Z,101669.44
2022-10-17T10:02:18.127Z,101697.47
2022-10-17T10:05:05.047Z,101723.88
2022-10-17T10:07:36.460Z,101717.38
2022-10-17T10:10:07.345Z,101738.44
2022-10-17T10:12:36.779Z,101735.66
2022-10-17T10:15:33.819Z,101742.97
2022-10-17T10:18:03.434Z,101740.66
2022-10-17T10:20:34.148Z,101736.91
2022-10-17T10:23:13.287Z,101710.00
2022-10-17T10:25:53.133Z,101735.19
2022-10-17T10:28:22.476Z,101725.41
2022-10-17T10:30:52.339Z,101699.47
2022-10-17T10:33:23.337Z,101629.13
2022-10-17T10:35:57.854Z,101615.28
2022-10-17T10:38:26.165Z,101608.97
2022-10-17T10:40:56.344Z,101661.53
2022-10-17T10:43:32.519Z,101672.97
2022-10-17T10:46:00.558Z,101656.22
2022-10-17T10:48:33.562Z,101649.13
2022-10-17T10:51:05.854Z,101667.72
2022-10-17T10:53:45.771Z,101654.94
2022-10-17T10:56:19.401Z,101713.63
2022-10-17T10:58:55.579Z,101694.28
2022-10-17T11:01:30.983Z,101681.38
2022-10-17T11:04:14.416Z,101659.63
2022-10-17T11:06:45.436Z,101615.53
2022-10-17T11:09:27.881Z,101605.56
2022-10-17T11:12:02.924Z,101591.84
2022-10-17T11:14:41.651Z,101611.50
2022-10-17T11:17:23.370Z,101576.88
2022-10-17T11:20:04.667Z,101607.34
2022-10-17T11:22:35.417Z,101559.28
2022-10-17T11:25:07.223Z,101583.41
2022-10-17T11:27:35.493Z,101607.72
2022-10-17T11:30:03.816Z,101652.94
2022-10-17T11:32:38.269Z,101626.88
2022-10-17T11:35:16.283Z,101616.47
2022-10-17T11:37:50.748Z,101640.16
2022-10-17T11:40:24.622Z,101616.47
2022-10-17T11:42:58.237Z,101659.34
2022-10-17T11:45:29.566Z,101664.75
2022-10-17T11:48:03.467Z,101632.25
2022-10-17T11:53:25.402Z,101713.84
2022-10-17T11:55:56.035Z,101746.91
2022-10-17T11:58:31.378Z,101732.53
2022-10-17T12:01:10.273Z,101783.81
2022-10-17T12:03:49.619Z,101781.41
2022-10-17T12:06:29.360Z,101759.34
2022-10-17T12:09:04.274Z,101754.03
2022-10-17T12:11:46.452Z,101762.44
2022-10-17T12:14:37.708Z,101729.38
2022-10-17T12:17:07.071Z,101717.28
2022-10-17T12:19:36.844Z,101708.44
2022-10-17T12:22:22.806Z,101697.22
2022-10-17T12:24:59.438Z,101666.19
2022-10-17T12:27:46.236Z,101608.00
2022-10-17T12:30:32.024Z,101636.63
2022-10-17T12:33:22.301Z,101618.47
2022-10-17T12:35:51.319Z,101581.44
2022-10-17T12:38:26.358Z,101551.94
2022-10-17T12:40:56.984Z,101568.44
2022-10-17T12:46:57.054Z,101592.28
2022-10-17T12:49:49.682Z,101601.22
2022-10-17T12:52:44.767Z,101609.69
2022-10-17T12:55:16.721Z,101644.41
2022-10-17T12:57:52.638Z,101639.63
2022-10-17T13:00:25.266Z,101620.19
2022-10-17T13:02:55.891Z,101624.78
2022-10-17T13:05:29.510Z,101617.00
2022-10-17T13:08:00.489Z,101591.72
2022-10-17T13:10:35.306Z,101583.56
2022-10-17T13:13:10.071Z,101563.84
2022-10-17T13:15:38.472Z,101570.72
2022-10-17T13:18:06.405Z,101546.34
2022-10-17T13:20:34.320Z,101521.00
2022-10-17T13:23:02.327Z,101532.41
2022-10-17T13:25:31.498Z,101545.13
2022-10-17T13:28:12.814Z,101517.88
2022-10-17T13:30:40.927Z,101527.66
2022-10-17T13:33:29.561Z,101514.97
2022-10-17T13:36:01.176Z,101501.06
2022-10-17T13:38:34.885Z,101482.75
2022-10-17T13:41:34.129Z,101471.34
2022-10-17T13:44:03.885Z,101469.03
2022-10-17T13:46:38.387Z,101491.44
2022-10-17T13:49:13.817Z,101447.13
2022-10-17T13:51:45.654Z,101440.97
2022-10-17T13:54:36.969Z,101421.97
2022-10-17T13:57:08.104Z,101451.66
2022-10-17T13:59:40.598Z,101475.56
2022-10-17T14:02:15.526Z,101455.38
2022-10-17T14:05:16.164Z,101480.41
2022-10-17T14:07:58.351Z,101455.81
2022-10-17T14:10:26.679Z,101485.66
2022-10-17T14:12:56.853Z,101504.13
2022-10-17T14:15:28.068Z,101504.88
2022-10-17T14:17:59.118Z,101496.59
2022-10-17T14:23:35.556Z,101495.63
2022-10-17T14:26:09.816Z,101494.41
2022-10-17T14:28:39.189Z,101473.72
2022-10-17T14:31:14.509Z,101480.91
2022-10-17T14:33:49.801Z,101476.91
2022-10-17T14:36:19.448Z,101481.53
2022-10-17T14:38:48.991Z,101489.22
2022-10-17T14:41:41.974Z,101532.97
2022-10-17T14:44:23.727Z,101529.41
2022-10-17T14:46:55.730Z,101495.16
2022-10-17T14:49:29.571Z,101497.66
2022-10-17T14:52:17.682Z,101493.56
2022-10-17T14:54:47.863Z,101507.06
2022-10-17T14:57:19.797Z,101482.09
2022-10-17T14:59:56.267Z,101460.50
2022-10-17T15:02:24.808Z,101464.56
2022-10-17T15:04:52.605Z,101459.47
2022-10-17T15:07:21.476Z,101471.34
2022-10-17T15:09:51.387Z,101479.09
2022-10-17T15:12:20.828Z,101468.03
2022-10-17T15:14:50.654Z,101485.47
2022-10-17T15:17:21.525Z,101508.75
2022-10-17T15:19:50.531Z,101495.28
2022-10-17T15:22:18.589Z,101469.41
2022-10-17T15:24:47.000Z,101453.94
2022-10-17T15:27:16.972Z,101463.28
2022-10-17T15:29:45.108Z,101451.63
2022-10-17T15:32:14.690Z,101450.09
2022-10-17T15:34:42.975Z,101440.78
2022-10-17T15:37:17.913Z,101413.22
2022-10-17T15:39:48.030Z,101415.94
2022-10-17T15:42:15.703Z,101392.66
2022-10-17T15:44:44.566Z,101383.56
2022-10-17T15:47:23.273Z,101373.47
2022-10-17T15:49:51.039Z,101371.31
2022-10-17T15:52:19.067Z,101359.50
2022-10-17T15:54:47.155Z,101338.84
2022-10-17T15:57:19.172Z,101332.06
2022-10-17T15:59:48.000Z,101346.78
2022-10-17T16:02:18.809Z,101352.97
2022-10-17T16:04:47.453Z,101351.41
2022-10-17T16:07:15.234Z,101391.19
2022-10-17T16:09:43.068Z,101404.50
2022-10-17T16:14:51.125Z,101476.03
2022-10-17T16:17:20.220Z,101524.91
2022-10-17T16:19:47.912Z,101561.00
2022-10-17T16:22:23.978Z,101615.97
2022-10-17T16:24:58.281Z,101670.88
2022-10-17T16:27:26.183Z,101677.72
2022-10-17T16:29:54.035Z,101694.38
2022-10-17T16:32:23.134Z,101736.56
2022-10-17T16:34:50.844Z,101730.56
2022-10-17T16:37:18.554Z,101772.09
2022-10-17T16:39:49.225Z,101821.97
2022-10-17T16:42:17.041Z,101834.41
2022-10-17T16:44:44.861Z,101840.41
2022-10-17T16:47:12.684Z,101821.22
2022-10-17T16:49:44.485Z,101844.41
2022-10-17T16:52:16.528Z,101898.03
2022-10-17T16:54:44.226Z,101896.97
2022-10-17T16:57:11.992Z,101918.28
2022-10-17T16:59:39.697Z,101920.22
2022-10-17T17:02:07.668Z,101994.91
2022-10-17T17:04:35.389Z,102045.59
2022-10-17T17:07:04.506Z,102068.59
2022-10-17T17:09:32.210Z,102075.34
2022-10-17T17:11:59.971Z,102105.97
2022-10-17T17:14:27.710Z,102114.97
2022-10-17T17:16:55.411Z,102128.78
2022-10-17T17:19:23.071Z,102158.50
2022-10-17T17:21:51.214Z,102173.97
2022-10-17T17:24:25.542Z,102207.63
2022-10-17T17:26:54.840Z,102232.13
2022-10-17T17:29:28.118Z,102239.56
2022-10-17T17:31:55.854Z,102251.94
2022-10-17T17:34:23.557Z,102255.34
2022-10-17T17:36:51.237Z,102258.78
2022-10-17T17:39:20.304Z,102271.03
2022-10-17T17:41:48.075Z,102274.66
2022-10-17T17:44:16.979Z,102273.94
2022-10-17T17:46:45.553Z,102277.41
2022-10-17T17:49:13.522Z,102285.06
2022-10-17T17:51:46.064Z,102283.56
2022-10-17T17:54:13.839Z,102296.25
2022-10-17T17:56:45.967Z,102286.81
2022-10-17T17:59:14.450Z,102280.31
2022-10-17T18:01:42.777Z,102282.78
2022-10-17T18:04:10.889Z,102292.28
2022-10-17T18:06:39.326Z,102281.09
2022-10-17T18:09:10.080Z,102285.06
2022-10-17T18:11:39.038Z,102282.09
2022-10-17T18:14:12.454Z,102275.31
2022-10-17T18:16:40.181Z,102278.91
2022-10-17T18:19:09.915Z,102255.13
2022-10-17T18:21:38.499Z,102247.41
2022-10-17T18:24:07.217Z,102235.56
2022-10-17T18:26:37.770Z,102236.66
2022-10-17T18:29:05.675Z,102261.75
2022-10-17T18:31:36.470Z,102248.13
2022-10-17T18:34:05.804Z,102262.53
2022-10-17T18:36:34.937Z,102259.13
2022-10-17T18:39:06.077Z,102261.53
2022-10-17T18:41:34.473Z,102251.41
2022-10-17T18:44:02.917Z,102245.81
2022-10-17T18:46:40.426Z,102233.34
2022-10-17T18:49:09.188Z,102251.63
2022-10-17T18:51:37.637Z,102242.00
2022-10-17T18:54:05.786Z,102240.94
2022-10-17T18:56:33.494Z,102248.19
2022-10-17T18:59:01.224Z,102243.97
2022-10-17T19:01:29.382Z,102230.31
2022-10-17T19:04:00.148Z,102245.59
2022-10-17T19:06:31.763Z,102242.88
2022-10-17T19:09:01.725Z,102245.16
2022-10-17T19:11:31.269Z,102236.38
2022-10-17T19:14:01.177Z,102266.16
2022-10-17T19:16:30.823Z,102245.69
2022-10-17T19:19:06.374Z,102250.22
2022-10-17T19:21:34.602Z,102260.38
2022-10-17T19:24:05.210Z,102268.44
2022-10-17T19:26:35.613Z,102284.84
2022-10-17T19:29:04.342Z,102273.22
2022-10-17T19:31:33.728Z,102247.19
2022-10-17T19:34:03.139Z,102245.00
2022-10-17T19:36:33.538Z,102255.56
2022-10-17T19:39:02.802Z,102256.59
2022-10-17T19:41:30.940Z,102266.75
2022-10-17T19:44:00.734Z,102293.38
2022-10-17T19:46:30.681Z,102289.00
2022-10-17T19:48:58.979Z,102278.78
2022-10-17T19:51:29.188Z,102292.13
2022-10-17T19:54:00.190Z,102265.53
2022-10-17T19:56:30.033Z,102278.69
2022-10-17T19:58:58.270Z,102271.09
2022-10-17T20:01:27.558Z,102290.22
2022-10-17T20:03:56.347Z,102288.22
2022-10-17T20:06:25.033Z,102281.69
2022-10-17T20:08:54.285Z,102274.22
2022-10-17T20:11:24.048Z,102284.84
2022-10-17T20:13:52.174Z,102311.31
2022-10-17T20:16:22.474Z,102297.81
2022-10-17T20:18:51.280Z,102308.84
2022-10-17T20:21:21.049Z,102312.22
2022-10-17T20:23:49.017Z,102316.03
2022-10-17T20:29:12.183Z,102310.75
2022-10-17T20:31:41.329Z,102309.03
2022-10-17T20:34:10.845Z,102328.66
2022-10-17T20:36:38.690Z,102336.44
2022-10-17T20:39:07.225Z,102294.91
2022-10-17T20:41:36.319Z,102310.41
2022-10-17T20:44:06.875Z,102336.41
2022-10-17T20:46:38.330Z,102322.81
2022-10-17T20:49:12.191Z,102340.16
2022-10-17T20:51:39.935Z,102365.41
2022-10-17T20:54:07.784Z,102363.91
2022-10-17T20:56:38.646Z,102353.53
2022-10-17T20:59:08.169Z,102349.19
2022-10-17T21:01:36.801Z,102356.69
2022-10-17T21:04:27.050Z,102358.78
2022-10-17T21:06:53.929Z,102338.19
2022-10-17T21:09:22.031Z,102320.22
2022-10-17T21:11:55.075Z,102304.66
2022-10-17T21:14:24.216Z,102286.84
2022-10-17T21:16:53.100Z,102261.31
2022-10-17T21:19:21.718Z,102287.44
2022-10-17T21:21:49.547Z,102278.44
2022-10-17T21:24:20.401Z,102275.91
2022-10-17T21:26:50.089Z,102279.28
2022-10-17T21:29:19.133Z,102286.97
2022-10-17T21:31:46.800Z,102285.91
2022-10-17T21:34:17.484Z,102282.09
2022-10-17T21:36:45.490Z,102249.72
2022-10-17T21:39:14.120Z,102252.50
2022-10-17T21:41:42.842Z,102248.88
2022-10-17T21:44:14.856Z,102253.34
2022-10-17T21:46:44.551Z,102221.94
2022-10-17T21:49:13.618Z,102209.41
2022-10-17T21:51:42.067Z,102225.84
2022-10-17T21:54:10.005Z,102209.94
2022-10-17T21:56:38.406Z,102152.78
2022-10-17T21:59:06.922Z,102206.16
2022-10-17T22:01:37.516Z,102224.31
2022-10-17T22:04:08.246Z,102204.38
2022-10-17T22:06:40.185Z,102216.50
2022-10-17T22:09:13.034Z,102213.47
2022-10-17T22:11:41.253Z,102197.09
2022-10-17T22:14:17.100Z,102167.38
2022-10-17T22:16:46.433Z,102113.13
2022-10-17T22:19:18.212Z,102059.69
2022-10-17T22:21:46.426Z,102034.28
2022-10-17T22:24:17.076Z,101990.28
2022-10-17T22:26:45.543Z,101925.16
2022-10-17T22:29:13.345Z,101880.03
2022-10-17T22:31:41.536Z,101898.88
2022-10-17T22:34:11.329Z,101899.84
2022-10-17T22:36:40.425Z,101916.44
2022-10-17T22:39:08.473Z,101960.66
2022-10-17T22:41:36.467Z,101945.13
2022-10-17T22:44:04.817Z,101916.09
2022-10-17T22:46:32.528Z,101917.59
2022-10-17T22:49:00.279Z,101917.16
2022-10-17T22:51:28.134Z,101909.56
2022-10-17T22:53:57.247Z,101878.88
2022-10-17T22:56:24.957Z,101874.69
2022-10-17T22:58:53.204Z,101963.97
2022-10-17T23:01:23.384Z,101975.59
2022-10-17T23:03:51.766Z,101947.66
2022-10-17T23:06:20.166Z,101968.69
2022-10-17T23:08:48.069Z,101976.31
2022-10-17T23:11:17.453Z,102006.66
2022-10-17T23:13:45.195Z,102032.78
2022-10-17T23:16:13.056Z,102045.66
2022-10-17T23:18:41.139Z,102045.16
2022-10-17T23:21:09.192Z,102026.19
2022-10-17T23:23:37.693Z,102025.47
2022-10-17T23:26:06.496Z,102008.38
2022-10-17T23:28:35.995Z,102052.97
2022-10-17T23:31:11.556Z,102089.19
2022-10-17T23:33:41.240Z,102054.09
2022-10-17T23:36:10.525Z,102030.03
2022-10-17T23:38:38.315Z,102065.00
2022-10-17T23:41:06.484Z,102107.94
2022-10-17T23:43:35.982Z,102100.84
2022-10-17T23:46:05.236Z,102126.72
2022-10-17T23:48:33.195Z,102102.31
2022-10-17T23:51:00.936Z,102116.75
2022-10-17T23:53:28.690Z,102174.16
2022-10-17T23:55:56.412Z,102262.72
2022-10-17T23:58:24.088Z,102292.91
